BEL7VB EBBR-LIEO
Flight info
| Callsign | BEL7VB |
|---|---|
| Flight time | 1h 50m |
| Altitude | 37000 |
| Route | ROUSY DCT GTQ DCT DEVDI DCT ODINA DCT EKPAL DCT GIPIX DCT NEMBO DCT TINTO/N0371F190 Q710 GITRI |
| Aircraft | A320/M-DE3FGHIJ1LORVWY/H |
Departure
| Time | 2026-05-05 07:50 |
|---|---|
| Airport | Brussels Airport (EBBR) |
Arrival
| Time | 2026-05-05 09:41 |
|---|---|
| Airport | Olbia Costa Smeralda Airport (LIEO) |
| Time | Latitude | Longitude | Altitude | Speed | Heading |
|---|---|---|---|---|---|
| 2026-05-05 07:07 | 50.90323 | 4.48318 | 120 ft | 0 kts | 155° |
| 2026-05-05 07:42 | 50.90342 | 4.48303 | 116 ft | 4 kts | 150° |
| 2026-05-05 07:42 | 50.90362 | 4.48279 | 117 ft | 4 kts | 113° |
| 2026-05-05 07:43 | 50.90364 | 4.48259 | 117 ft | 0 kts | 65° |
| 2026-05-05 07:45 | 50.90366 | 4.48263 | 117 ft | 2 kts | 65° |
| 2026-05-05 07:46 | 50.90404 | 4.48292 | 121 ft | 10 kts | 19° |
| 2026-05-05 07:46 | 50.90455 | 4.48417 | 121 ft | 16 kts | 65° |
| 2026-05-05 07:46 | 50.90507 | 4.48576 | 118 ft | 16 kts | 42° |
| 2026-05-05 07:46 | 50.90603 | 4.48657 | 119 ft | 16 kts | 62° |
| 2026-05-05 07:47 | 50.90653 | 4.48827 | 120 ft | 17 kts | 66° |
| 2026-05-05 07:47 | 50.90705 | 4.49008 | 117 ft | 18 kts | 65° |
| 2026-05-05 07:47 | 50.90759 | 4.49195 | 119 ft | 19 kts | 65° |
| 2026-05-05 07:47 | 50.90813 | 4.49383 | 121 ft | 19 kts | 65° |
| 2026-05-05 07:48 | 50.90868 | 4.49575 | 123 ft | 19 kts | 65° |
| 2026-05-05 07:48 | 50.90916 | 4.49742 | 122 ft | 15 kts | 65° |
| 2026-05-05 07:48 | 50.90974 | 4.49853 | 122 ft | 14 kts | 40° |
| 2026-05-05 07:48 | 50.91047 | 4.49917 | 117 ft | 11 kts | 23° |
| 2026-05-05 07:49 | 50.91122 | 4.49936 | 120 ft | 11 kts | 337° |
| 2026-05-05 07:49 | 50.91128 | 4.49850 | 117 ft | 8 kts | 246° |
| 2026-05-05 07:49 | 50.91089 | 4.49709 | 120 ft | 34 kts | 246° |
| 2026-05-05 07:49 | 50.90881 | 4.48989 | 117 ft | 106 kts | 245° |
| 2026-05-05 07:50 | 50.90493 | 4.47645 | 122 ft | 161 kts | 245° |
| 2026-05-05 07:50 | 50.89996 | 4.45933 | 513 ft | 172 kts | 249° |
| 2026-05-05 07:50 | 50.89512 | 4.44197 | 1196 ft | 172 kts | 249° |
| 2026-05-05 07:50 | 50.89022 | 4.42444 | 1825 ft | 176 kts | 244° |
| 2026-05-05 07:51 | 50.88173 | 4.41097 | 2363 ft | 177 kts | 197° |
| 2026-05-05 07:51 | 50.86992 | 4.41046 | 2898 ft | 169 kts | 162° |
| 2026-05-05 07:51 | 50.85956 | 4.41820 | 3392 ft | 165 kts | 132° |
| 2026-05-05 07:51 | 50.85282 | 4.43389 | 3580 ft | 184 kts | 115° |
| 2026-05-05 07:52 | 50.84608 | 4.45236 | 3852 ft | 204 kts | 117° |
| 2026-05-05 07:52 | 50.83844 | 4.47276 | 4077 ft | 228 kts | 117° |
| 2026-05-05 07:52 | 50.82985 | 4.49539 | 4419 ft | 253 kts | 121° |
| 2026-05-05 07:52 | 50.81852 | 4.51770 | 5048 ft | 265 kts | 128° |
| 2026-05-05 07:53 | 50.80630 | 4.53997 | 5835 ft | 270 kts | 129° |
| 2026-05-05 07:53 | 50.79376 | 4.56242 | 6622 ft | 275 kts | 130° |
| 2026-05-05 07:53 | 50.78096 | 4.58525 | 7404 ft | 279 kts | 129° |
| 2026-05-05 07:53 | 50.76810 | 4.60826 | 8214 ft | 281 kts | 129° |
| 2026-05-05 07:54 | 50.75507 | 4.63158 | 9015 ft | 284 kts | 129° |
| 2026-05-05 07:54 | 50.74194 | 4.65512 | 9821 ft | 287 kts | 129° |
| 2026-05-05 07:54 | 50.72853 | 4.67920 | 10303 ft | 301 kts | 128° |
| 2026-05-05 07:54 | 50.71418 | 4.70504 | 10502 ft | 325 kts | 129° |
| 2026-05-05 07:55 | 50.69998 | 4.73370 | 10880 ft | 336 kts | 120° |
| 2026-05-05 07:55 | 50.68936 | 4.76680 | 11511 ft | 340 kts | 109° |
| 2026-05-05 07:55 | 50.68245 | 4.80258 | 12208 ft | 343 kts | 104° |
| 2026-05-05 07:55 | 50.67593 | 4.83889 | 12936 ft | 346 kts | 104° |
| 2026-05-05 07:56 | 50.66910 | 4.87553 | 13633 ft | 351 kts | 108° |
| 2026-05-05 07:56 | 50.65876 | 4.91069 | 14249 ft | 357 kts | 119° |
| 2026-05-05 07:56 | 50.64386 | 4.94232 | 14879 ft | 362 kts | 131° |
| 2026-05-05 07:56 | 50.62601 | 4.97030 | 15536 ft | 363 kts | 135° |
| 2026-05-05 07:57 | 50.60792 | 4.99822 | 16138 ft | 366 kts | 134° |
| 2026-05-05 07:57 | 50.58975 | 5.02638 | 16795 ft | 367 kts | 135° |
| 2026-05-05 07:57 | 50.57156 | 5.05458 | 17440 ft | 368 kts | 135° |
| 2026-05-05 07:57 | 50.55330 | 5.08282 | 18110 ft | 369 kts | 135° |
| 2026-05-05 07:58 | 50.53488 | 5.11127 | 18561 ft | 374 kts | 135° |
| 2026-05-05 07:58 | 50.51622 | 5.14007 | 19009 ft | 378 kts | 136° |
| 2026-05-05 07:58 | 50.49732 | 5.16916 | 19519 ft | 381 kts | 136° |
| 2026-05-05 07:58 | 50.47830 | 5.19842 | 19999 ft | 385 kts | 136° |
| 2026-05-05 07:59 | 50.45905 | 5.22804 | 20538 ft | 388 kts | 136° |
| 2026-05-05 07:59 | 50.43970 | 5.25774 | 21103 ft | 391 kts | 136° |
| 2026-05-05 07:59 | 50.42022 | 5.28764 | 21621 ft | 393 kts | 136° |
| 2026-05-05 07:59 | 50.40061 | 5.31773 | 22096 ft | 396 kts | 136° |
| 2026-05-05 08:00 | 50.38085 | 5.34800 | 22585 ft | 398 kts | 136° |
| 2026-05-05 08:00 | 50.36093 | 5.37841 | 23052 ft | 401 kts | 136° |
| 2026-05-05 08:00 | 50.34090 | 5.40890 | 23500 ft | 404 kts | 136° |
| 2026-05-05 08:00 | 50.32069 | 5.43960 | 23870 ft | 406 kts | 137° |
| 2026-05-05 08:01 | 50.30034 | 5.47055 | 24242 ft | 409 kts | 137° |
| 2026-05-05 08:01 | 50.27991 | 5.50165 | 24645 ft | 410 kts | 137° |
| 2026-05-05 08:01 | 50.25948 | 5.53268 | 25068 ft | 410 kts | 138° |
| 2026-05-05 08:01 | 50.23893 | 5.56383 | 25419 ft | 412 kts | 138° |
| 2026-05-05 08:02 | 50.21829 | 5.59512 | 25763 ft | 415 kts | 138° |
| 2026-05-05 08:02 | 50.19759 | 5.62652 | 26107 ft | 417 kts | 138° |
| 2026-05-05 08:02 | 50.17674 | 5.65808 | 26442 ft | 419 kts | 138° |
| 2026-05-05 08:02 | 50.15579 | 5.68972 | 26791 ft | 420 kts | 139° |
| 2026-05-05 08:03 | 50.13469 | 5.72146 | 27110 ft | 422 kts | 139° |
| 2026-05-05 08:03 | 50.11345 | 5.75333 | 27429 ft | 424 kts | 139° |
| 2026-05-05 08:03 | 50.09147 | 5.78384 | 27734 ft | 423 kts | 146° |
| 2026-05-05 08:03 | 50.06678 | 5.80863 | 28037 ft | 422 kts | 155° |
| 2026-05-05 08:04 | 50.03993 | 5.82671 | 28328 ft | 421 kts | 163° |
| 2026-05-05 08:04 | 50.01213 | 5.84095 | 28657 ft | 421 kts | 164° |
| 2026-05-05 08:04 | 49.98426 | 5.85527 | 28960 ft | 423 kts | 164° |
| 2026-05-05 08:04 | 49.95626 | 5.86965 | 29246 ft | 424 kts | 164° |
| 2026-05-05 08:05 | 49.92820 | 5.88411 | 29533 ft | 426 kts | 164° |
| 2026-05-05 08:05 | 49.90005 | 5.89867 | 29802 ft | 427 kts | 164° |
| 2026-05-05 08:05 | 49.87183 | 5.91327 | 30002 ft | 430 kts | 165° |
| 2026-05-05 08:05 | 49.84329 | 5.92802 | 30161 ft | 433 kts | 165° |
| 2026-05-05 08:06 | 49.81468 | 5.94276 | 30365 ft | 434 kts | 165° |
| 2026-05-05 08:06 | 49.78601 | 5.95746 | 30615 ft | 434 kts | 165° |
| 2026-05-05 08:06 | 49.75746 | 5.97204 | 30949 ft | 431 kts | 165° |
| 2026-05-05 08:06 | 49.72906 | 5.98653 | 31282 ft | 429 kts | 165° |
| 2026-05-05 08:07 | 49.70087 | 6.00093 | 31616 ft | 426 kts | 166° |
| 2026-05-05 08:07 | 49.67276 | 6.01528 | 31940 ft | 424 kts | 166° |
| 2026-05-05 08:07 | 49.64480 | 6.02954 | 32276 ft | 422 kts | 166° |
| 2026-05-05 08:07 | 49.61696 | 6.04370 | 32604 ft | 420 kts | 166° |
| 2026-05-05 08:08 | 49.58932 | 6.05777 | 32924 ft | 418 kts | 166° |
| 2026-05-05 08:08 | 49.56187 | 6.07178 | 33299 ft | 414 kts | 166° |
| 2026-05-05 08:08 | 49.53462 | 6.08562 | 33673 ft | 410 kts | 166° |
| 2026-05-05 08:08 | 49.50759 | 6.09928 | 33994 ft | 408 kts | 166° |
| 2026-05-05 08:09 | 49.48118 | 6.11588 | 34225 ft | 413 kts | 158° |
| 2026-05-05 08:09 | 49.45664 | 6.13934 | 34420 ft | 420 kts | 148° |
| 2026-05-05 08:09 | 49.43380 | 6.16759 | 34590 ft | 422 kts | 146° |
| 2026-05-05 08:09 | 49.41100 | 6.19604 | 34792 ft | 423 kts | 146° |
| 2026-05-05 08:10 | 49.38812 | 6.22449 | 34952 ft | 423 kts | 146° |
| 2026-05-05 08:10 | 49.36523 | 6.25287 | 35102 ft | 424 kts | 146° |
| 2026-05-05 08:10 | 49.34223 | 6.28128 | 35238 ft | 425 kts | 146° |
| 2026-05-05 08:10 | 49.31918 | 6.30965 | 35404 ft | 425 kts | 146° |
| 2026-05-05 08:11 | 49.29611 | 6.33805 | 35568 ft | 426 kts | 146° |
| 2026-05-05 08:11 | 49.27302 | 6.36645 | 35731 ft | 426 kts | 146° |
| 2026-05-05 08:11 | 49.24988 | 6.39486 | 35898 ft | 426 kts | 146° |
| 2026-05-05 08:11 | 49.22677 | 6.42322 | 36054 ft | 426 kts | 146° |
| 2026-05-05 08:12 | 49.20361 | 6.45162 | 36214 ft | 426 kts | 146° |
| 2026-05-05 08:12 | 49.18047 | 6.47996 | 36354 ft | 427 kts | 146° |
| 2026-05-05 08:12 | 49.15729 | 6.50833 | 36492 ft | 427 kts | 146° |
| 2026-05-05 08:12 | 49.13412 | 6.53661 | 36644 ft | 427 kts | 146° |
| 2026-05-05 08:13 | 49.11090 | 6.56490 | 36799 ft | 427 kts | 145° |
| 2026-05-05 08:13 | 49.08768 | 6.59314 | 36899 ft | 427 kts | 145° |
| 2026-05-05 08:13 | 49.04120 | 6.64964 | 36905 ft | 427 kts | 145° |
| 2026-05-05 08:14 | 48.99450 | 6.70560 | 36905 ft | 425 kts | 150° |
| 2026-05-05 08:14 | 48.94243 | 6.74626 | 36915 ft | 420 kts | 159° |
| 2026-05-05 08:15 | 48.88902 | 6.78250 | 36911 ft | 421 kts | 159° |
| 2026-05-05 08:15 | 48.83559 | 6.81902 | 36909 ft | 421 kts | 159° |
| 2026-05-05 08:16 | 48.78212 | 6.85549 | 36900 ft | 422 kts | 159° |
| 2026-05-05 08:16 | 48.72854 | 6.89180 | 36911 ft | 422 kts | 159° |
| 2026-05-05 08:17 | 48.67494 | 6.92805 | 36904 ft | 422 kts | 159° |
| 2026-05-05 08:17 | 48.62134 | 6.96424 | 36888 ft | 422 kts | 159° |
| 2026-05-05 08:18 | 48.56769 | 7.00028 | 36898 ft | 422 kts | 159° |
| 2026-05-05 08:18 | 48.51400 | 7.03634 | 36903 ft | 422 kts | 159° |
| 2026-05-05 08:19 | 48.46034 | 7.07229 | 36911 ft | 422 kts | 159° |
| 2026-05-05 08:19 | 48.40662 | 7.10819 | 36905 ft | 422 kts | 159° |
| 2026-05-05 08:20 | 48.36205 | 7.13799 | 36902 ft | 422 kts | 159° |
| 2026-05-05 08:20 | 48.30837 | 7.17373 | 36895 ft | 422 kts | 159° |
| 2026-05-05 08:21 | 48.25461 | 7.20938 | 36899 ft | 422 kts | 159° |
| 2026-05-05 08:21 | 48.20081 | 7.24504 | 36888 ft | 423 kts | 159° |
| 2026-05-05 08:22 | 48.14704 | 7.28056 | 36873 ft | 422 kts | 159° |
| 2026-05-05 08:22 | 48.09289 | 7.31624 | 36879 ft | 422 kts | 159° |
| 2026-05-05 08:23 | 48.03917 | 7.35161 | 36882 ft | 422 kts | 159° |
| 2026-05-05 08:23 | 47.98542 | 7.38694 | 36880 ft | 422 kts | 159° |
| 2026-05-05 08:24 | 47.93170 | 7.42210 | 36893 ft | 422 kts | 160° |
| 2026-05-05 08:24 | 47.87795 | 7.45721 | 36906 ft | 421 kts | 160° |
| 2026-05-05 08:25 | 47.82466 | 7.49197 | 36908 ft | 421 kts | 160° |
| 2026-05-05 08:25 | 47.77098 | 7.52688 | 36919 ft | 421 kts | 160° |
| 2026-05-05 08:26 | 47.71738 | 7.56192 | 36927 ft | 421 kts | 159° |
| 2026-05-05 08:26 | 47.66412 | 7.59937 | 36909 ft | 422 kts | 157° |
| 2026-05-05 08:27 | 47.61130 | 7.63742 | 36912 ft | 422 kts | 157° |
| 2026-05-05 08:27 | 47.55874 | 7.67472 | 36911 ft | 422 kts | 158° |
| 2026-05-05 08:28 | 47.50571 | 7.71191 | 36908 ft | 422 kts | 158° |
| 2026-05-05 08:28 | 47.45271 | 7.74898 | 36919 ft | 422 kts | 158° |
| 2026-05-05 08:29 | 47.39958 | 7.78593 | 36918 ft | 422 kts | 158° |
| 2026-05-05 08:30 | 47.31986 | 7.84143 | 36911 ft | 423 kts | 158° |
| 2026-05-05 08:30 | 47.26673 | 7.87837 | 36918 ft | 422 kts | 158° |
| 2026-05-05 08:31 | 47.21350 | 7.91520 | 36917 ft | 423 kts | 158° |
| 2026-05-05 08:31 | 47.16027 | 7.95192 | 36909 ft | 423 kts | 158° |
| 2026-05-05 08:32 | 47.10702 | 7.98855 | 36906 ft | 423 kts | 158° |
| 2026-05-05 08:32 | 47.05372 | 8.02518 | 36909 ft | 423 kts | 158° |
| 2026-05-05 08:33 | 47.00042 | 8.06179 | 36907 ft | 423 kts | 158° |
| 2026-05-05 08:33 | 46.94708 | 8.09832 | 36909 ft | 423 kts | 158° |
| 2026-05-05 08:34 | 46.89373 | 8.13480 | 36915 ft | 423 kts | 158° |
| 2026-05-05 08:34 | 46.84028 | 8.17123 | 36886 ft | 424 kts | 159° |
| 2026-05-05 08:35 | 46.78672 | 8.20767 | 36885 ft | 425 kts | 159° |
| 2026-05-05 08:35 | 46.73307 | 8.24411 | 36898 ft | 426 kts | 159° |
| 2026-05-05 08:36 | 46.67926 | 8.28047 | 36907 ft | 426 kts | 159° |
| 2026-05-05 08:36 | 46.62537 | 8.31684 | 36917 ft | 427 kts | 159° |
| 2026-05-05 08:37 | 46.57147 | 8.35327 | 36933 ft | 428 kts | 159° |
| 2026-05-05 08:37 | 46.51741 | 8.38967 | 36947 ft | 428 kts | 159° |
| 2026-05-05 08:38 | 46.46332 | 8.42593 | 37003 ft | 428 kts | 159° |
| 2026-05-05 08:38 | 46.40921 | 8.46213 | 37004 ft | 429 kts | 159° |
| 2026-05-05 08:39 | 46.35511 | 8.49832 | 37012 ft | 428 kts | 159° |
| 2026-05-05 08:39 | 46.30092 | 8.53443 | 37036 ft | 428 kts | 159° |
| 2026-05-05 08:40 | 46.24678 | 8.57038 | 37020 ft | 428 kts | 159° |
| 2026-05-05 08:40 | 46.19270 | 8.60638 | 37012 ft | 428 kts | 160° |
| 2026-05-05 08:41 | 46.13850 | 8.64230 | 37016 ft | 429 kts | 159° |
| 2026-05-05 08:41 | 46.08564 | 8.68263 | 37024 ft | 433 kts | 150° |
| 2026-05-05 08:42 | 46.03548 | 8.73080 | 37017 ft | 433 kts | 151° |
| 2026-05-05 08:42 | 45.98524 | 8.77870 | 36998 ft | 434 kts | 151° |
| 2026-05-05 08:43 | 45.93483 | 8.82654 | 37007 ft | 435 kts | 151° |
| 2026-05-05 08:43 | 45.88431 | 8.87447 | 37009 ft | 435 kts | 151° |
| 2026-05-05 08:44 | 45.83376 | 8.92232 | 37010 ft | 435 kts | 151° |
| 2026-05-05 08:44 | 45.78323 | 8.97005 | 37004 ft | 435 kts | 152° |
| 2026-05-05 08:45 | 45.73275 | 9.01771 | 36999 ft | 435 kts | 152° |
| 2026-05-05 08:45 | 45.68225 | 9.06523 | 36972 ft | 435 kts | 152° |
| 2026-05-05 08:46 | 45.63160 | 9.11275 | 36975 ft | 435 kts | 152° |
| 2026-05-05 08:46 | 45.58093 | 9.16018 | 36978 ft | 436 kts | 152° |
| 2026-05-05 08:47 | 45.53017 | 9.20756 | 36987 ft | 436 kts | 152° |
| 2026-05-05 08:47 | 45.47944 | 9.25494 | 36987 ft | 436 kts | 152° |
| 2026-05-05 08:48 | 45.42869 | 9.30221 | 36987 ft | 436 kts | 152° |
| 2026-05-05 08:48 | 45.37786 | 9.34934 | 36956 ft | 436 kts | 152° |
| 2026-05-05 08:49 | 45.32696 | 9.39636 | 37034 ft | 437 kts | 152° |
| 2026-05-05 08:49 | 45.27584 | 9.44347 | 37015 ft | 438 kts | 152° |
| 2026-05-05 08:50 | 45.22470 | 9.49068 | 36987 ft | 439 kts | 152° |
| 2026-05-05 08:50 | 45.17352 | 9.53788 | 36971 ft | 439 kts | 153° |
| 2026-05-05 08:51 | 45.12227 | 9.58490 | 36972 ft | 439 kts | 153° |
| 2026-05-05 08:51 | 45.07100 | 9.63187 | 36952 ft | 440 kts | 152° |
| 2026-05-05 08:52 | 45.01958 | 9.67889 | 36964 ft | 440 kts | 152° |
| 2026-05-05 08:52 | 44.96819 | 9.72584 | 36949 ft | 441 kts | 153° |
| 2026-05-05 08:53 | 44.91654 | 9.77277 | 36947 ft | 441 kts | 153° |
| 2026-05-05 08:53 | 44.86497 | 9.81967 | 36951 ft | 441 kts | 153° |
| 2026-05-05 08:54 | 44.81333 | 9.86648 | 36961 ft | 442 kts | 153° |
| 2026-05-05 08:54 | 44.76157 | 9.91329 | 36958 ft | 442 kts | 152° |
| 2026-05-05 08:55 | 44.70968 | 9.96008 | 36965 ft | 443 kts | 153° |
| 2026-05-05 08:55 | 44.65787 | 10.00671 | 36967 ft | 442 kts | 153° |
| 2026-05-05 08:56 | 44.60607 | 10.05329 | 36971 ft | 443 kts | 153° |
| 2026-05-05 08:56 | 44.55411 | 10.09984 | 36974 ft | 443 kts | 153° |
| 2026-05-05 08:57 | 44.50047 | 10.14134 | 36969 ft | 435 kts | 166° |
| 2026-05-05 08:57 | 44.44235 | 10.15777 | 36966 ft | 422 kts | 184° |
| 2026-05-05 08:58 | 44.38403 | 10.15430 | 36972 ft | 419 kts | 188° |
| 2026-05-05 08:58 | 44.32568 | 10.14951 | 36979 ft | 421 kts | 188° |
| 2026-05-05 08:59 | 44.26714 | 10.14477 | 36963 ft | 421 kts | 188° |
| 2026-05-05 08:59 | 44.20859 | 10.14008 | 36964 ft | 421 kts | 188° |
| 2026-05-05 09:00 | 44.15996 | 10.13622 | 36937 ft | 421 kts | 188° |
| 2026-05-05 09:00 | 44.09141 | 10.13078 | 36945 ft | 423 kts | 187° |
| 2026-05-05 09:01 | 44.04227 | 10.13594 | 36956 ft | 433 kts | 172° |
| 2026-05-05 09:01 | 43.98373 | 10.15770 | 36963 ft | 436 kts | 170° |
| 2026-05-05 09:02 | 43.92520 | 10.17980 | 36962 ft | 436 kts | 171° |
| 2026-05-05 09:02 | 43.86657 | 10.20180 | 36972 ft | 437 kts | 171° |
| 2026-05-05 09:03 | 43.80786 | 10.22386 | 36966 ft | 438 kts | 170° |
| 2026-05-05 09:03 | 43.74895 | 10.24596 | 36956 ft | 438 kts | 171° |
| 2026-05-05 09:04 | 43.69005 | 10.26798 | 36971 ft | 439 kts | 171° |
| 2026-05-05 09:04 | 43.63107 | 10.28990 | 36983 ft | 439 kts | 171° |
| 2026-05-05 09:05 | 43.57202 | 10.31179 | 36980 ft | 440 kts | 171° |
| 2026-05-05 09:05 | 43.51293 | 10.33370 | 36981 ft | 440 kts | 171° |
| 2026-05-05 09:06 | 43.45383 | 10.35553 | 36983 ft | 440 kts | 171° |
| 2026-05-05 09:06 | 43.39467 | 10.37732 | 36984 ft | 440 kts | 171° |
| 2026-05-05 09:07 | 43.33552 | 10.39913 | 36974 ft | 440 kts | 171° |
| 2026-05-05 09:07 | 43.27634 | 10.42099 | 36980 ft | 441 kts | 171° |
| 2026-05-05 09:08 | 43.21709 | 10.44273 | 36989 ft | 441 kts | 171° |
| 2026-05-05 09:08 | 43.15782 | 10.46447 | 36992 ft | 441 kts | 171° |
| 2026-05-05 09:09 | 43.09853 | 10.48616 | 36967 ft | 441 kts | 172° |
| 2026-05-05 09:09 | 43.03911 | 10.50775 | 36976 ft | 442 kts | 172° |
| 2026-05-05 09:10 | 42.97960 | 10.52936 | 36983 ft | 443 kts | 172° |
| 2026-05-05 09:10 | 42.92006 | 10.55105 | 36976 ft | 443 kts | 171° |
| 2026-05-05 09:11 | 42.86052 | 10.57274 | 36979 ft | 443 kts | 171° |
| 2026-05-05 09:11 | 42.80092 | 10.59431 | 36987 ft | 443 kts | 172° |
| 2026-05-05 09:12 | 42.74130 | 10.61580 | 36990 ft | 443 kts | 172° |
| 2026-05-05 09:12 | 42.68168 | 10.63738 | 36976 ft | 443 kts | 172° |
| 2026-05-05 09:13 | 42.62200 | 10.65877 | 36982 ft | 444 kts | 172° |
| 2026-05-05 09:13 | 42.56231 | 10.68011 | 36988 ft | 444 kts | 172° |
| 2026-05-05 09:14 | 42.50259 | 10.70158 | 36974 ft | 444 kts | 172° |
| 2026-05-05 09:14 | 42.44288 | 10.72300 | 36989 ft | 444 kts | 172° |
| 2026-05-05 09:15 | 42.38313 | 10.74434 | 37001 ft | 444 kts | 172° |
| 2026-05-05 09:15 | 42.32340 | 10.76564 | 37007 ft | 444 kts | 172° |
| 2026-05-05 09:16 | 42.26366 | 10.78688 | 37021 ft | 444 kts | 172° |
| 2026-05-05 09:16 | 42.20396 | 10.80838 | 37016 ft | 444 kts | 171° |
| 2026-05-05 09:17 | 42.14422 | 10.83003 | 37018 ft | 444 kts | 171° |
| 2026-05-05 09:17 | 42.08451 | 10.85167 | 36995 ft | 444 kts | 171° |
| 2026-05-05 09:18 | 42.02480 | 10.87317 | 36710 ft | 444 kts | 171° |
| 2026-05-05 09:18 | 41.99533 | 10.88376 | 36225 ft | 444 kts | 171° |
| 2026-05-05 09:18 | 41.96536 | 10.89447 | 35433 ft | 446 kts | 172° |
| 2026-05-05 09:18 | 41.93492 | 10.90530 | 34597 ft | 448 kts | 172° |
| 2026-05-05 09:19 | 41.90464 | 10.91606 | 33681 ft | 452 kts | 172° |
| 2026-05-05 09:19 | 41.87418 | 10.92691 | 32872 ft | 451 kts | 172° |
| 2026-05-05 09:19 | 41.84417 | 10.93771 | 32368 ft | 444 kts | 172° |
| 2026-05-05 09:19 | 41.81488 | 10.94825 | 31798 ft | 439 kts | 172° |
| 2026-05-05 09:20 | 41.78551 | 10.95878 | 31226 ft | 435 kts | 172° |
| 2026-05-05 09:20 | 41.75639 | 10.96919 | 30653 ft | 431 kts | 172° |
| 2026-05-05 09:20 | 41.72748 | 10.97950 | 30099 ft | 428 kts | 172° |
| 2026-05-05 09:20 | 41.69880 | 10.98968 | 29478 ft | 424 kts | 172° |
| 2026-05-05 09:21 | 41.67045 | 10.99978 | 28952 ft | 419 kts | 172° |
| 2026-05-05 09:21 | 41.64242 | 11.00977 | 28398 ft | 414 kts | 172° |
| 2026-05-05 09:21 | 41.61473 | 11.01962 | 27877 ft | 410 kts | 172° |
| 2026-05-05 09:21 | 41.58730 | 11.02937 | 27347 ft | 406 kts | 172° |
| 2026-05-05 09:22 | 41.56014 | 11.03898 | 26853 ft | 402 kts | 172° |
| 2026-05-05 09:22 | 41.53310 | 11.04702 | 26350 ft | 392 kts | 180° |
| 2026-05-05 09:22 | 41.50644 | 11.04697 | 25883 ft | 378 kts | 194° |
| 2026-05-05 09:22 | 41.48136 | 11.03889 | 25426 ft | 366 kts | 206° |
| 2026-05-05 09:23 | 41.45903 | 11.02393 | 24988 ft | 356 kts | 218° |
| 2026-05-05 09:23 | 41.44024 | 11.00320 | 24554 ft | 347 kts | 229° |
| 2026-05-05 09:23 | 41.42492 | 10.97869 | 24141 ft | 342 kts | 234° |
| 2026-05-05 09:23 | 41.41021 | 10.95400 | 23730 ft | 339 kts | 234° |
| 2026-05-05 09:24 | 41.39554 | 10.92953 | 23251 ft | 336 kts | 234° |
| 2026-05-05 09:24 | 41.38102 | 10.90537 | 22834 ft | 332 kts | 233° |
| 2026-05-05 09:24 | 41.36670 | 10.88155 | 22420 ft | 328 kts | 233° |
| 2026-05-05 09:24 | 41.35252 | 10.85799 | 22012 ft | 324 kts | 233° |
| 2026-05-05 09:25 | 41.33847 | 10.83470 | 21593 ft | 321 kts | 233° |
| 2026-05-05 09:25 | 41.32456 | 10.81162 | 21195 ft | 318 kts | 233° |
| 2026-05-05 09:25 | 41.31047 | 10.78815 | 20774 ft | 332 kts | 233° |
| 2026-05-05 09:25 | 41.29601 | 10.76399 | 20331 ft | 335 kts | 233° |
| 2026-05-05 09:26 | 41.28145 | 10.73976 | 19892 ft | 335 kts | 233° |
| 2026-05-05 09:26 | 41.26692 | 10.71565 | 19442 ft | 333 kts | 233° |
| 2026-05-05 09:26 | 41.25244 | 10.69169 | 19009 ft | 332 kts | 233° |
| 2026-05-05 09:26 | 41.23803 | 10.66784 | 18570 ft | 330 kts | 233° |
| 2026-05-05 09:27 | 41.22367 | 10.64409 | 18109 ft | 330 kts | 233° |
| 2026-05-05 09:27 | 41.20936 | 10.62039 | 17658 ft | 328 kts | 233° |
| 2026-05-05 09:27 | 41.19512 | 10.59685 | 17218 ft | 326 kts | 232° |
| 2026-05-05 09:27 | 41.18097 | 10.57346 | 16773 ft | 325 kts | 232° |
| 2026-05-05 09:28 | 41.16681 | 10.55010 | 16326 ft | 323 kts | 232° |
| 2026-05-05 09:28 | 41.15278 | 10.52694 | 15890 ft | 321 kts | 232° |
| 2026-05-05 09:28 | 41.13879 | 10.50391 | 15452 ft | 320 kts | 232° |
| 2026-05-05 09:28 | 41.12479 | 10.48095 | 15020 ft | 319 kts | 232° |
| 2026-05-05 09:29 | 41.11084 | 10.45808 | 14591 ft | 318 kts | 232° |
| 2026-05-05 09:29 | 41.09694 | 10.43526 | 14148 ft | 318 kts | 232° |
| 2026-05-05 09:29 | 41.08307 | 10.41248 | 13682 ft | 318 kts | 232° |
| 2026-05-05 09:29 | 41.06920 | 10.38972 | 13221 ft | 317 kts | 232° |
| 2026-05-05 09:30 | 41.05677 | 10.36584 | 12766 ft | 314 kts | 243° |
| 2026-05-05 09:30 | 41.04933 | 10.33889 | 12329 ft | 312 kts | 257° |
| 2026-05-05 09:30 | 41.04719 | 10.31033 | 11880 ft | 312 kts | 267° |
| 2026-05-05 09:30 | 41.04658 | 10.28161 | 11434 ft | 311 kts | 266° |
| 2026-05-05 09:31 | 41.04590 | 10.25305 | 10963 ft | 309 kts | 266° |
| 2026-05-05 09:31 | 41.04516 | 10.22466 | 10510 ft | 308 kts | 266° |
| 2026-05-05 09:31 | 41.04442 | 10.19651 | 10241 ft | 301 kts | 266° |
| 2026-05-05 09:31 | 41.04372 | 10.16938 | 10119 ft | 289 kts | 266° |
| 2026-05-05 09:32 | 41.04304 | 10.14333 | 9991 ft | 278 kts | 266° |
| 2026-05-05 09:32 | 41.04237 | 10.11798 | 9580 ft | 277 kts | 266° |
| 2026-05-05 09:32 | 41.04168 | 10.09262 | 9144 ft | 271 kts | 266° |
| 2026-05-05 09:32 | 41.04103 | 10.06780 | 8463 ft | 269 kts | 266° |
| 2026-05-05 09:33 | 41.04036 | 10.04312 | 7780 ft | 267 kts | 266° |
| 2026-05-05 09:33 | 41.03971 | 10.01877 | 7204 ft | 263 kts | 266° |
| 2026-05-05 09:33 | 41.03906 | 9.99464 | 6659 ft | 263 kts | 266° |
| 2026-05-05 09:33 | 41.03838 | 9.97026 | 6150 ft | 265 kts | 266° |
| 2026-05-05 09:34 | 41.03770 | 9.94604 | 5836 ft | 262 kts | 266° |
| 2026-05-05 09:34 | 41.03702 | 9.92196 | 5450 ft | 262 kts | 266° |
| 2026-05-05 09:34 | 41.03635 | 9.89774 | 5054 ft | 260 kts | 266° |
| 2026-05-05 09:34 | 41.03569 | 9.87429 | 4893 ft | 249 kts | 265° |
| 2026-05-05 09:35 | 41.03506 | 9.85201 | 4773 ft | 235 kts | 266° |
| 2026-05-05 09:35 | 41.03391 | 9.81110 | 4573 ft | 211 kts | 266° |
| 2026-05-05 09:35 | 41.03340 | 9.79220 | 4477 ft | 200 kts | 266° |
| 2026-05-05 09:36 | 41.03132 | 9.77450 | 4284 ft | 192 kts | 248° |
| 2026-05-05 09:36 | 41.02464 | 9.75942 | 4054 ft | 190 kts | 236° |
| 2026-05-05 09:36 | 41.01717 | 9.74506 | 3808 ft | 189 kts | 236° |
| 2026-05-05 09:36 | 41.00971 | 9.73072 | 3554 ft | 189 kts | 236° |
| 2026-05-05 09:37 | 41.00227 | 9.71639 | 3312 ft | 189 kts | 236° |
| 2026-05-05 09:37 | 40.99483 | 9.70209 | 3061 ft | 189 kts | 236° |
| 2026-05-05 09:37 | 40.98736 | 9.68772 | 2813 ft | 190 kts | 236° |
| 2026-05-05 09:37 | 40.97990 | 9.67338 | 2584 ft | 187 kts | 236° |
| 2026-05-05 09:38 | 40.97259 | 9.65934 | 2317 ft | 184 kts | 236° |
| 2026-05-05 09:38 | 40.96537 | 9.64547 | 2069 ft | 183 kts | 236° |
| 2026-05-05 09:38 | 40.95807 | 9.63146 | 1818 ft | 185 kts | 235° |
| 2026-05-05 09:38 | 40.95082 | 9.61754 | 1569 ft | 182 kts | 235° |
| 2026-05-05 09:39 | 40.94378 | 9.60404 | 1325 ft | 173 kts | 234° |
| 2026-05-05 09:39 | 40.93722 | 9.59146 | 1129 ft | 158 kts | 234° |
| 2026-05-05 09:39 | 40.93116 | 9.57985 | 913 ft | 151 kts | 233° |
| 2026-05-05 09:39 | 40.92528 | 9.56858 | 719 ft | 149 kts | 234° |
| 2026-05-05 09:40 | 40.91947 | 9.55745 | 526 ft | 146 kts | 236° |
| 2026-05-05 09:40 | 40.91367 | 9.54633 | 349 ft | 146 kts | 234° |
| 2026-05-05 09:40 | 40.90788 | 9.53530 | 148 ft | 146 kts | 234° |
| 2026-05-05 09:40 | 40.90232 | 9.52448 | 40 ft | 133 kts | 233° |
| 2026-05-05 09:41 | 40.89783 | 9.51603 | 34 ft | 89 kts | 235° |
| 2026-05-05 09:41 | 40.89602 | 9.51248 | 35 ft | 7 kts | 253° |
| 2026-05-05 09:41 | 40.89622 | 9.51201 | 34 ft | 6 kts | 299° |
| 2026-05-05 09:41 | 40.89642 | 9.51152 | 34 ft | 6 kts | 300° |
| 2026-05-05 09:42 | 40.89667 | 9.51118 | 34 ft | 5 kts | 324° |
| 2026-05-05 09:42 | 40.89693 | 9.51099 | 34 ft | 5 kts | 341° |
| 2026-05-05 09:42 | 40.89749 | 9.51148 | 34 ft | 14 kts | 55° |
| 2026-05-05 09:42 | 40.89803 | 9.51250 | 34 ft | 14 kts | 55° |
| 2026-05-05 09:43 | 40.89839 | 9.51320 | 34 ft | 14 kts | 56° |
| 2026-05-05 09:43 | 40.89894 | 9.51425 | 33 ft | 14 kts | 55° |
| 2026-05-05 09:43 | 40.89964 | 9.51509 | 34 ft | 14 kts | 15° |
| 2026-05-05 09:43 | 40.90044 | 9.51482 | 34 ft | 11 kts | 328° |
| 2026-05-05 09:44 | 40.90095 | 9.51520 | 34 ft | 9 kts | 54° |
| 2026-05-05 09:44 | 40.90127 | 9.51580 | 34 ft | 7 kts | 55° |
| 2026-05-05 09:44 | 40.90145 | 9.51612 | 34 ft | 3 kts | 38° |
| 2026-05-05 09:44 | 40.90165 | 9.51606 | 34 ft | 3 kts | 335° |
| 2026-05-05 09:45 | 40.90184 | 9.51589 | 34 ft | 3 kts | 326° |
| 2026-05-05 09:45 | 40.90200 | 9.51575 | 34 ft | 1 kts | 325° |
| 2026-05-05 09:45 | 40.90202 | 9.51573 | 34 ft | 0 kts | 325° |